Time;durP1;ratioP1;P1;durP2;ratioP2;P2;SDS_P1;SDS_P2;PMS_P1;PMS_P2;Temp;Humidity;BMP_temperature;BMP_pressure;BME280_temperature;BME280_humidity;BME280_pressure;Samples;Min_cycle;Max_cycle;Signal;HPM_P1;HPM_P2
2022/08/25 00:02:07;;;;;;;3.97;2.67;;;21.70;72.80;22.30;96664.00;;;;5117101;28;20723;-81
2022/08/25 00:04:35;;;;;;;2.57;2.33;;;21.70;72.90;22.20;96661.00;;;;5116685;28;20193;-80
2022/08/25 00:07:05;;;;;;;2.80;2.60;;;21.70;73.00;22.20;96652.00;;;;5116631;28;20213;-80
2022/08/25 00:09:37;;;;;;;3.97;3.23;;;21.70;73.10;22.20;96657.00;;;;5118027;28;20220;-80
2022/08/25 00:12:09;;;;;;;2.80;2.60;;;21.70;73.20;22.20;96650.00;;;;5117450;28;20207;-80
2022/08/25 00:14:42;;;;;;;2.80;2.60;;;21.70;73.20;22.20;96653.00;;;;5117138;28;20749;-80
2022/08/25 00:17:11;;;;;;;4.13;2.80;;;21.70;73.30;22.10;96649.00;;;;5116471;28;20205;-80
2022/08/25 00:19:39;;;;;;;2.90;2.70;;;21.70;73.40;22.10;96646.00;;;;5116592;28;20594;-80
2022/08/25 00:22:09;;;;;;;3.40;3.10;;;21.70;73.50;22.10;96642.00;;;;5116550;28;20195;-80
2022/08/25 00:24:41;;;;;;;4.17;3.23;;;21.70;73.70;22.10;96642.00;;;;5116447;28;20237;-80
2022/08/25 00:27:11;;;;;;;3.30;3.10;;;21.60;73.80;22.10;96643.00;;;;5115318;28;20258;-80
2022/08/25 00:29:38;;;;;;;3.83;3.53;;;21.60;73.80;22.10;96640.00;;;;5116194;28;20231;-80
2022/08/25 00:32:12;;;;;;;3.30;3.10;;;21.60;73.90;22.10;96635.00;;;;5116751;28;20205;-80
2022/08/25 00:34:41;;;;;;;3.10;2.90;;;21.60;74.00;22.10;96638.00;;;;5115801;28;20199;-80
2022/08/25 00:37:12;;;;;;;3.00;2.63;;;21.60;74.10;22.10;96637.00;;;;5116280;28;20192;-80
2022/08/25 00:39:55;;;;;;;2.93;2.63;;;21.60;74.20;22.10;96634.00;;;;5116169;28;20511;-80
2022/08/25 00:42:23;;;;;;;2.50;2.30;;;21.60;74.40;22.10;96641.00;;;;5115664;28;20206;-80
2022/08/25 00:44:50;;;;;;;2.77;2.57;;;21.60;74.50;22.10;96636.00;;;;5116464;28;20612;-80
2022/08/25 00:47:18;;;;;;;2.73;2.47;;;21.60;74.60;22.10;96632.00;;;;5116280;28;20723;-80
2022/08/25 00:49:53;;;;;;;2.63;2.43;;;21.60;74.70;22.10;96639.00;;;;5116077;28;20215;-80
2022/08/25 00:52:25;;;;;;;2.57;2.37;;;21.60;74.70;22.10;96641.00;;;;5115633;28;20198;-80
2022/08/25 00:55:05;;;;;;;2.60;2.40;;;21.60;74.70;22.10;96640.00;;;;5116416;28;20249;-80
2022/08/25 00:57:42;;;;;;;2.60;2.40;;;21.60;74.60;22.10;96626.00;;;;5116162;28;20212;-80
2022/08/25 01:00:19;;;;;;;2.60;2.40;;;21.60;74.60;22.10;96629.00;;;;5116003;28;20309;-81
2022/08/25 01:02:47;;;;;;;2.67;2.47;;;21.60;74.40;22.10;96626.00;;;;5114996;28;20210;-80
2022/08/25 01:05:14;;;;;;;2.87;2.67;;;21.60;74.30;22.10;96623.00;;;;5112773;28;20255;-80
2022/08/25 01:07:45;;;;;;;2.77;2.57;;;21.60;74.40;22.00;96626.00;;;;5112803;28;20231;-80
2022/08/25 01:10:14;;;;;;;3.00;2.77;;;21.60;74.50;22.00;96621.00;;;;5112588;28;20301;-81
2022/08/25 01:12:47;;;;;;;2.90;2.70;;;21.50;74.40;22.00;96615.00;;;;5113161;28;20199;-80
2022/08/25 01:15:20;;;;;;;3.03;2.70;;;21.50;74.50;22.00;96622.00;;;;5112161;28;20218;-81
2022/08/25 01:17:53;;;;;;;3.33;2.87;;;21.50;74.50;22.00;96620.00;;;;5112471;28;20201;-80
2022/08/25 01:20:25;;;;;;;2.70;2.50;;;21.50;74.60;22.00;96613.00;;;;5112172;28;20295;-80
2022/08/25 01:22:58;;;;;;;3.00;2.80;;;21.50;74.60;22.00;96617.00;;;;5112930;28;20285;-80
2022/08/25 01:25:38;;;;;;;2.77;2.57;;;21.50;74.50;22.00;96609.00;;;;5112109;28;20247;-81
2022/08/25 01:28:08;;;;;;;3.27;2.97;;;21.50;74.70;22.00;96623.00;;;;5112341;28;20274;-80
2022/08/25 01:30:36;;;;;;;2.80;2.60;;;21.50;74.60;22.00;96619.00;;;;5112411;28;20222;-80
2022/08/25 01:33:06;;;;;;;3.20;3.00;;;21.40;74.50;21.90;96614.00;;;;5112493;28;20924;-80
2022/08/25 01:35:34;;;;;;;3.20;2.90;;;21.40;74.50;21.90;96616.00;;;;5111911;28;20581;-81
2022/08/25 01:38:08;;;;;;;2.97;2.77;;;21.40;74.50;21.90;96609.00;;;;5112869;28;20645;-80
2022/08/25 01:40:36;;;;;;;3.37;3.00;;;21.40;74.70;21.90;96603.00;;;;5112995;28;20219;-81
2022/08/25 01:43:17;;;;;;;3.47;3.17;;;21.40;74.70;21.90;96602.00;;;;5112120;28;20244;-81
2022/08/25 01:45:50;;;;;;;3.47;3.03;;;21.40;74.80;21.90;96605.00;;;;5111650;28;20229;-81
2022/08/25 01:48:18;;;;;;;3.30;3.00;;;21.40;74.90;21.80;96602.00;;;;5112540;28;20539;-80
2022/08/25 01:50:53;;;;;;;3.40;3.20;;;21.40;75.00;21.90;96605.00;;;;5111977;28;20264;-79
2022/08/25 01:53:27;;;;;;;3.53;3.23;;;21.40;75.30;21.90;96611.00;;;;5115187;28;20200;-80
2022/08/25 01:56:00;;;;;;;3.17;2.97;;;21.40;75.40;21.80;96607.00;;;;5115179;28;20254;-80
2022/08/25 01:58:32;;;;;;;3.50;3.20;;;21.30;75.30;21.80;96610.00;;;;5115418;28;20206;-80
2022/08/25 02:01:03;;;;;;;3.77;3.27;;;21.40;75.40;21.80;96614.00;;;;5115680;28;20293;-80
2022/08/25 02:03:31;;;;;;;3.87;3.47;;;21.40;75.50;21.80;96608.00;;;;5114879;28;20203;-80
2022/08/25 02:08:27;;;;;;;3.67;3.47;;;21.40;75.50;21.80;96614.00;;;;5112968;28;20703;-85
2022/08/25 02:10:55;;;;;;;3.57;3.27;;;21.40;75.60;21.80;96602.00;;;;5114202;28;20236;-85
2022/08/25 02:13:23;;;;;;;4.30;3.50;;;21.40;75.60;21.80;96612.00;;;;5114878;28;20199;-85
2022/08/25 02:15:55;;;;;;;3.13;2.93;;;21.40;75.60;21.80;96610.00;;;;5114443;28;20426;-85
2022/08/25 02:18:23;;;;;;;3.53;3.33;;;21.40;75.70;21.80;96609.00;;;;5114582;28;20208;-86
2022/08/25 02:20:50;;;;;;;4.47;4.07;;;21.40;75.70;21.90;96606.00;;;;5128361;22;20265;-86
2022/08/25 02:23:17;;;;;;;3.67;3.37;;;21.40;75.80;21.80;96605.00;;;;5114661;28;20746;-87
2022/08/25 02:25:46;;;;;;;5.47;4.10;;;21.40;75.70;21.80;96606.00;;;;5115178;28;20213;-87
2022/08/25 02:28:14;;;;;;;3.67;3.37;;;21.40;75.80;21.90;96608.00;;;;5115251;28;20195;-86
2022/08/25 02:30:44;;;;;;;3.70;3.40;;;21.40;75.80;21.90;96601.00;;;;5114642;28;20217;-87
2022/08/25 02:33:14;;;;;;;4.40;3.70;;;21.40;75.90;21.90;96614.00;;;;5114513;28;20206;-86
2022/08/25 02:35:43;;;;;;;4.30;3.90;;;21.40;75.80;21.90;96608.00;;;;5114039;28;20249;-86
2022/08/25 02:38:14;;;;;;;3.80;3.43;;;21.40;75.80;21.90;96602.00;;;;5114549;28;20281;-87
2022/08/25 02:40:41;;;;;;;3.80;3.50;;;21.40;75.80;21.90;96604.00;;;;5113290;28;20210;-87
2022/08/25 02:43:10;;;;;;;4.00;3.60;;;21.40;75.80;21.90;96607.00;;;;5114025;28;20204;-87
2022/08/25 02:45:40;;;;;;;5.30;3.63;;;21.40;75.90;21.90;96603.00;;;;5113523;28;20255;-87
2022/08/25 02:48:07;;;;;;;3.97;3.67;;;21.40;75.80;21.90;96603.00;;;;5114173;28;20204;-86
2022/08/25 02:50:34;;;;;;;3.70;3.40;;;21.40;75.90;21.90;96598.00;;;;5113242;28;20229;-86
2022/08/25 02:53:02;;;;;;;4.20;3.80;;;21.40;75.90;21.90;96599.00;;;;5113998;28;20206;-86
2022/08/25 02:55:32;;;;;;;4.30;3.90;;;21.40;75.90;21.90;96596.00;;;;5114131;28;20640;-86
2022/08/25 02:58:04;;;;;;;7.13;4.20;;;21.40;75.90;21.90;96592.00;;;;5113717;28;20210;-86
2022/08/25 03:00:33;;;;;;;4.00;3.70;;;21.40;75.90;21.90;96585.00;;;;5113383;28;20261;-86
2022/08/25 03:03:03;;;;;;;4.00;3.70;;;21.40;75.90;21.90;96587.00;;;;5113340;28;20593;-86
2022/08/25 03:05:32;;;;;;;3.63;3.33;;;21.40;76.00;22.00;96585.00;;;;5113306;28;20252;-86
2022/08/25 03:08:00;;;;;;;4.30;3.90;;;21.40;75.90;22.00;96588.00;;;;5113438;28;20599;-86
2022/08/25 03:10:29;;;;;;;4.20;3.80;;;21.40;76.00;22.00;96584.00;;;;5112792;28;20267;-85
2022/08/25 03:12:59;;;;;;;4.57;4.20;;;21.40;76.00;22.00;96585.00;;;;5113569;28;20615;-86
2022/08/25 03:15:27;;;;;;;4.63;4.23;;;21.40;76.00;22.00;96588.00;;;;5112464;28;20226;-86
2022/08/25 03:17:56;;;;;;;4.90;3.83;;;21.40;76.00;22.00;96582.00;;;;5113686;28;20239;-86
2022/08/25 03:20:26;;;;;;;4.50;4.10;;;21.40;76.10;22.00;96588.00;;;;5113171;28;20267;-86
2022/08/25 03:22:55;;;;;;;3.93;3.67;;;21.40;76.10;22.00;96577.00;;;;5113653;28;20565;-86
2022/08/25 03:28:09;;;;;;;4.37;4.07;;;21.40;76.10;22.00;96583.00;;;;5113165;28;20221;-87
2022/08/25 03:30:36;;;;;;;4.63;4.13;;;21.40;76.00;21.90;96581.00;;;;5113094;28;20503;-87
2022/08/25 03:33:07;;;;;;;4.00;3.70;;;21.40;76.00;21.90;96576.00;;;;5112723;28;20206;-87
2022/08/25 03:35:35;;;;;;;4.33;3.70;;;21.40;76.00;21.90;96582.00;;;;5112341;28;20608;-87
2022/08/25 03:38:02;;;;;;;4.77;4.37;;;21.40;75.90;21.90;96580.00;;;;5112946;28;20620;-86
2022/08/25 03:40:30;;;;;;;4.40;4.00;;;21.40;75.90;21.90;96584.00;;;;5108623;28;20680;-86
2022/08/25 03:42:57;;;;;;;4.80;4.40;;;21.40;75.90;21.90;96579.00;;;;5112657;28;20259;-86
2022/08/25 03:45:25;;;;;;;4.00;3.63;;;21.40;75.90;21.90;96582.00;;;;5112424;28;20277;-86
2022/08/25 03:47:53;;;;;;;3.93;3.63;;;21.40;75.90;21.90;96577.00;;;;5112617;28;20244;-86
2022/08/25 03:50:24;;;;;;;4.33;4.03;;;21.40;75.90;21.90;96575.00;;;;5112396;28;20257;-86
2022/08/25 03:52:53;;;;;;;4.67;4.27;;;21.40;75.90;21.90;96568.00;;;;5112881;28;20199;-86
2022/08/25 03:55:23;;;;;;;3.40;3.20;;;21.40;75.80;21.80;96564.00;;;;5112968;28;20202;-87
2022/08/25 03:57:56;;;;;;;5.67;4.17;;;21.40;75.80;21.80;96568.00;;;;5112821;28;20240;-86
2022/08/25 04:00:26;;;;;;;3.70;3.40;;;21.40;75.90;21.80;96569.00;;;;5112849;28;20226;-86
2022/08/25 04:02:53;;;;;;;4.70;4.30;;;21.40;75.80;21.80;96571.00;;;;5113603;28;20205;-86
2022/08/25 04:05:22;;;;;;;4.50;4.10;;;21.30;75.80;21.80;96562.00;;;;5112538;28;20255;-86
2022/08/25 04:07:52;;;;;;;6.00;4.27;;;21.30;75.80;21.80;96564.00;;;;5112281;28;20194;-86
2022/08/25 04:10:20;;;;;;;4.37;4.03;;;21.30;75.90;21.80;96563.00;;;;5111739;28;20210;-86
2022/08/25 04:12:48;;;;;;;4.90;4.50;;;21.30;76.00;21.80;96565.00;;;;5111803;27;20669;-86
2022/08/25 04:15:15;;;;;;;5.10;4.10;;;21.30;76.00;21.80;96567.00;;;;5110905;28;20196;-86
2022/08/25 04:17:44;;;;;;;4.80;4.33;;;21.30;76.10;21.70;96564.00;;;;5111860;28;20308;-87
2022/08/25 04:20:12;;;;;;;4.83;4.37;;;21.30;76.10;21.70;96565.00;;;;5111872;28;20226;-86
2022/08/25 04:22:46;;;;;;;4.83;4.43;;;21.30;76.10;21.70;96574.00;;;;5111990;28;20737;-86
2022/08/25 04:25:13;;;;;;;4.50;3.83;;;21.30;76.30;21.70;96570.00;;;;5111109;28;20200;-85
2022/08/25 04:27:41;;;;;;;4.57;4.03;;;21.30;76.20;21.70;96569.00;;;;5111618;28;20232;-86
2022/08/25 04:30:10;;;;;;;5.17;4.67;;;21.30;76.30;21.70;96570.00;;;;5111610;28;20702;-86
2022/08/25 04:32:37;;;;;;;4.83;4.33;;;21.20;76.20;21.70;96573.00;;;;5112905;28;20222;-86
2022/08/25 04:35:06;;;;;;;5.97;4.80;;;21.20;76.20;21.70;96563.00;;;;5111217;28;20215;-86
2022/08/25 04:37:33;;;;;;;4.73;4.33;;;21.20;76.20;21.70;96577.00;;;;5112523;28;20551;-86
2022/08/25 04:40:03;;;;;;;4.40;4.07;;;21.20;76.30;21.70;96567.00;;;;5112196;28;20220;-86
2022/08/25 04:42:30;;;;;;;4.87;4.47;;;21.20;76.40;21.70;96575.00;;;;5111508;28;20202;-86
2022/08/25 04:44:58;;;;;;;5.73;4.50;;;21.20;76.40;21.70;96567.00;;;;5111102;28;20289;-86
2022/08/25 04:47:25;;;;;;;5.13;4.73;;;21.20;76.40;21.70;96565.00;;;;5111774;28;20203;-85
2022/08/25 04:49:54;;;;;;;5.23;4.70;;;21.20;76.40;21.70;96569.00;;;;5111198;28;20221;-86
2022/08/25 04:52:21;;;;;;;5.20;4.80;;;21.20;76.50;21.70;96564.00;;;;5111456;28;20251;-86
2022/08/25 04:54:49;;;;;;;4.77;4.33;;;21.20;76.60;21.70;96576.00;;;;5111321;28;20202;-86
2022/08/25 04:57:17;;;;;;;5.23;4.83;;;21.20;76.60;21.70;96579.00;;;;5110894;28;20221;-86
2022/08/25 04:59:48;;;;;;;5.23;4.80;;;21.20;76.70;21.70;96577.00;;;;5111562;28;20566;-86
2022/08/25 05:02:15;;;;;;;4.33;3.93;;;21.20;76.90;21.70;96577.00;;;;5111307;28;20200;-86
2022/08/25 05:04:50;;;;;;;4.83;4.43;;;21.20;76.90;21.70;96575.00;;;;5110992;28;20654;-85
2022/08/25 05:07:21;;;;;;;4.87;4.50;;;21.20;77.10;21.70;96561.00;;;;5111791;28;20206;-86
2022/08/25 05:09:48;;;;;;;4.90;4.50;;;21.20;77.20;21.70;96567.00;;;;5112033;28;20214;-86
2022/08/25 05:12:17;;;;;;;5.77;5.27;;;21.20;77.10;21.70;96571.00;;;;5111131;28;20257;-86
2022/08/25 05:14:44;;;;;;;4.57;4.17;;;21.20;77.20;21.70;96569.00;;;;5111104;28;20222;-86
2022/08/25 05:17:13;;;;;;;5.53;5.03;;;21.20;77.30;21.70;96567.00;;;;5110908;28;20338;-86
2022/08/25 05:19:40;;;;;;;5.57;5.03;;;21.20;77.40;21.70;96568.00;;;;5110961;28;20226;-86
2022/08/25 05:22:07;;;;;;;4.93;4.53;;;21.20;77.40;21.70;96571.00;;;;5110728;28;20194;-86
2022/08/25 05:24:34;;;;;;;5.53;5.03;;;21.20;77.40;21.70;96569.00;;;;5111232;28;20197;-86
2022/08/25 05:27:05;;;;;;;4.77;4.37;;;21.20;77.50;21.70;96566.00;;;;5113974;28;20195;-86
2022/08/25 05:29:33;;;;;;;6.00;4.97;;;21.20;77.50;21.80;96565.00;;;;5114927;28;20643;-86
2022/08/25 05:32:01;;;;;;;5.67;5.07;;;21.20;77.60;21.80;96566.00;;;;5115296;28;20203;-86
2022/08/25 05:34:31;;;;;;;6.07;5.10;;;21.30;77.70;21.80;96565.00;;;;5115206;28;20720;-88
2022/08/25 05:37:02;;;;;;;6.00;5.40;;;21.30;77.90;21.80;96570.00;;;;5115678;28;20307;-87
2022/08/25 05:39:31;;;;;;;5.17;4.73;;;21.30;77.90;21.80;96560.00;;;;5115739;28;21030;-86
2022/08/25 05:41:58;;;;;;;5.00;4.50;;;21.30;78.00;21.90;96560.00;;;;5115643;28;20204;-86
2022/08/25 05:44:28;;;;;;;5.37;4.87;;;21.30;77.90;21.90;96557.00;;;;5115530;28;20266;-86
2022/08/25 05:46:57;;;;;;;5.57;4.97;;;21.30;78.10;21.90;96562.00;;;;5116739;27;20250;-86
2022/08/25 05:49:24;;;;;;;5.33;4.93;;;21.30;78.10;21.90;96558.00;;;;5117112;28;20247;-86
2022/08/25 05:51:51;;;;;;;5.73;5.23;;;21.30;78.20;21.90;96558.00;;;;5115409;28;20650;-86
2022/08/25 05:54:19;;;;;;;5.03;4.63;;;21.40;78.30;22.00;96563.00;;;;5115470;28;20658;-87
2022/08/25 05:56:46;;;;;;;5.73;5.13;;;21.40;78.30;22.00;96556.00;;;;5113979;28;20236;-86
2022/08/25 05:59:19;;;;;;;5.53;4.93;;;21.40;78.40;22.00;96560.00;;;;5115247;28;20593;-86
2022/08/25 06:04:34;;;;;;;5.50;5.10;;;21.50;78.60;22.10;96564.00;;;;5115224;28;20201;-86
2022/08/25 06:07:05;;;;;;;5.83;5.23;;;21.50;78.70;22.10;96562.00;;;;5115746;28;20287;-86
2022/08/25 06:09:40;;;;;;;6.33;5.73;;;21.50;78.70;22.20;96563.00;;;;5115699;28;20242;-86
2022/08/25 06:12:09;;;;;;;5.83;5.33;;;21.60;78.80;22.20;96562.00;;;;5116192;28;20198;-87
2022/08/25 06:14:37;;;;;;;5.60;4.97;;;21.60;78.90;22.20;96562.00;;;;5115028;28;20244;-86
2022/08/25 06:17:04;;;;;;;6.00;5.40;;;21.60;79.00;22.30;96560.00;;;;5114262;28;20228;-89
2022/08/25 06:19:32;;;;;;;5.57;5.07;;;21.70;79.10;22.30;96555.00;;;;5114770;28;20588;-86
2022/08/25 06:22:03;;;;;;;5.63;5.13;;;21.70;79.10;22.40;96556.00;;;;5115175;28;20720;-86
2022/08/25 06:24:35;;;;;;;5.43;4.93;;;21.70;79.20;22.40;96559.00;;;;5114036;28;20213;-86
2022/08/25 06:27:03;;;;;;;10.17;7.83;;;21.80;79.40;22.50;96558.00;;;;5108646;28;20204;-85
2022/08/25 06:29:33;;;;;;;5.43;4.93;;;21.80;79.40;22.50;96561.00;;;;5094325;28;20211;-85
2022/08/25 06:32:04;;;;;;;5.33;4.83;;;21.90;79.40;22.50;96559.00;;;;5099250;28;20293;-86
2022/08/25 06:34:38;;;;;;;5.70;5.20;;;21.90;79.50;22.60;96558.00;;;;5114274;28;20191;-86
2022/08/25 06:37:07;;;;;;;5.30;4.80;;;21.90;79.50;22.60;96559.00;;;;5113553;28;20267;-86
2022/08/25 06:39:34;;;;;;;5.70;5.20;;;22.00;79.60;22.70;96554.00;;;;5113472;28;20222;-85
2022/08/25 06:42:01;;;;;;;5.63;5.13;;;22.00;79.50;22.70;96557.00;;;;5114616;28;20674;-86
2022/08/25 06:44:30;;;;;;;6.00;5.47;;;22.10;79.50;22.80;96564.00;;;;5115423;28;20198;-86
2022/08/25 06:47:01;;;;;;;6.00;5.00;;;22.20;79.60;22.90;96560.00;;;;5114658;28;20244;-86
2022/08/25 06:49:31;;;;;;;6.30;5.70;;;22.20;79.60;22.90;96557.00;;;;5115379;28;20222;-86
2022/08/25 06:52:00;;;;;;;7.03;6.33;;;22.30;79.50;23.00;96557.00;;;;5113473;28;20243;-86
2022/08/25 06:54:32;;;;;;;5.80;5.30;;;22.30;79.50;23.00;96551.00;;;;5097105;28;20645;-86
2022/08/25 06:57:06;;;;;;;6.47;5.90;;;22.40;79.60;23.10;96557.00;;;;5105218;28;20897;-86
2022/08/25 06:59:36;;;;;;;6.20;5.70;;;22.50;79.50;23.20;96554.00;;;;5113980;28;20218;-86
2022/08/25 07:02:07;;;;;;;6.07;5.57;;;22.50;79.50;23.20;96550.00;;;;5114179;28;20199;-86
2022/08/25 07:04:38;;;;;;;5.73;5.23;;;22.60;79.50;23.30;96559.00;;;;5114121;28;20261;-86
2022/08/25 07:07:06;;;;;;;6.63;5.30;;;22.60;79.40;23.40;96558.00;;;;5114338;28;20655;-86
2022/08/25 07:09:36;;;;;;;6.67;5.57;;;22.70;79.40;23.40;96565.00;;;;5113938;28;20223;-86
2022/08/25 07:12:04;;;;;;;5.93;5.43;;;22.70;79.50;23.50;96571.00;;;;5112623;28;20198;-86
2022/08/25 07:14:35;;;;;;;6.30;5.20;;;22.80;79.60;23.60;96568.00;;;;5114103;28;20229;-86
2022/08/25 07:17:05;;;;;;;5.43;4.90;;;22.90;80.50;23.70;96561.00;;;;5113689;27;20314;-86
2022/08/25 07:19:32;;;;;;;5.60;5.13;;;23.00;79.90;23.90;96567.00;;;;5114308;28;20262;-86
2022/08/25 07:21:59;;;;;;;5.70;5.20;;;23.10;80.00;24.00;96560.00;;;;5113649;28;20210;-86
2022/08/25 07:24:27;;;;;;;5.60;5.07;;;23.20;80.00;24.20;96569.00;;;;5113822;28;20704;-86
2022/08/25 07:26:56;;;;;;;6.17;5.57;;;23.30;80.10;24.40;96557.00;;;;5113907;28;20230;-85
2022/08/25 07:29:27;;;;;;;5.90;5.40;;;23.40;80.00;24.50;96556.00;;;;5114031;28;20693;-86
2022/08/25 07:31:54;;;;;;;6.13;5.53;;;23.60;80.00;24.70;96557.00;;;;5113933;28;20235;-87
2022/08/25 07:37:16;;;;;;;5.43;5.03;;;23.80;79.70;25.10;96556.00;;;;5113474;28;20224;-87
2022/08/25 07:39:43;;;;;;;5.10;4.60;;;24.00;79.50;25.20;96556.00;;;;5113177;28;20271;-86
2022/08/25 07:42:13;;;;;;;5.93;5.43;;;24.10;79.20;25.30;96555.00;;;;5114071;28;20204;-87
2022/08/25 07:44:46;;;;;;;5.93;5.43;;;24.30;79.10;25.50;96550.00;;;;5113802;27;20266;-86
2022/08/25 07:47:14;;;;;;;5.60;5.07;;;24.40;78.70;25.60;96556.00;;;;5113619;28;20731;-86
2022/08/25 07:49:42;;;;;;;6.20;5.60;;;24.60;78.50;25.80;96555.00;;;;5112405;28;20601;-87
2022/08/25 07:52:10;;;;;;;7.47;5.37;;;24.70;78.20;25.90;96567.00;;;;5114628;28;20202;-86
2022/08/25 07:54:37;;;;;;;6.73;5.60;;;24.80;78.00;26.10;96563.00;;;;5113732;28;20225;-86
2022/08/25 07:57:08;;;;;;;5.20;4.80;;;24.90;77.90;26.20;96564.00;;;;5114095;28;20242;-86
2022/08/25 07:59:40;;;;;;;5.97;5.43;;;25.10;77.80;26.40;96559.00;;;;5114916;28;20279;-86
2022/08/25 08:02:10;;;;;;;5.73;5.23;;;25.30;77.20;26.50;96563.00;;;;5113749;28;20601;-87
2022/08/25 08:04:37;;;;;;;5.43;4.93;;;25.40;77.20;26.70;96567.00;;;;5114299;28;20194;-86
2022/08/25 08:07:06;;;;;;;5.57;5.07;;;25.50;76.80;26.90;96558.00;;;;5134347;22;20314;-90
2022/08/25 08:09:33;;;;;;;5.33;4.83;;;25.70;76.30;27.00;96567.00;;;;5112022;28;20207;-90
2022/08/25 08:12:00;;;;;;;5.57;5.07;;;25.80;75.90;27.10;96560.00;;;;5111086;28;20244;-90
2022/08/25 08:14:27;;;;;;;5.33;4.83;;;26.00;75.60;27.30;96567.00;;;;5106557;28;20215;-90
2022/08/25 08:16:56;;;;;;;5.40;5.00;;;26.10;75.30;27.40;96570.00;;;;5091161;28;20667;-90
2022/08/25 08:19:23;;;;;;;4.97;4.50;;;26.20;75.00;27.60;96560.00;;;;5091545;28;20233;-90
2022/08/25 08:21:50;;;;;;;5.10;4.60;;;26.40;75.00;27.70;96570.00;;;;5091696;28;20734;-90
2022/08/25 08:24:18;;;;;;;6.27;5.10;;;26.50;74.40;27.80;96567.00;;;;5091095;28;20259;-90
2022/08/25 08:26:45;;;;;;;5.60;4.80;;;26.60;74.20;27.90;96573.00;;;;5091318;28;20269;-90
2022/08/25 08:29:13;;;;;;;5.17;4.67;;;26.70;73.80;27.90;96570.00;;;;5091144;28;20242;-90
2022/08/25 08:31:40;;;;;;;5.10;4.70;;;26.80;73.20;28.00;96566.00;;;;5091069;28;20253;-89
2022/08/25 08:34:09;;;;;;;5.00;4.60;;;26.90;72.80;28.10;96559.00;;;;5091358;28;20276;-90
2022/08/25 08:36:36;;;;;;;4.90;4.40;;;27.00;72.80;28.20;96563.00;;;;5090997;28;20215;-90
2022/08/25 08:39:04;;;;;;;4.90;4.57;;;27.10;72.80;28.40;96561.00;;;;5091664;28;20223;-90
2022/08/25 08:44:59;;;;;;;4.67;4.33;;;27.30;72.10;28.70;96566.00;;;;5088944;28;20698;-90
2022/08/25 08:47:43;;;;;;;4.68;4.28;;;27.50;71.90;28.80;96565.00;;;;5079885;28;20216;-90
2022/08/25 08:50:28;;;;;;;5.35;4.95;;;27.60;71.70;28.90;96563.00;;;;5071821;28;20200;-90
2022/08/25 08:53:07;;;;;;;5.03;4.63;;;27.70;70.40;29.00;96575.00;;;;5071750;28;20231;-90
2022/08/25 08:55:40;;;;;;;4.88;4.45;;;27.80;70.50;29.00;96566.00;;;;5073615;28;20192;-90
2022/08/25 08:58:16;;;;;;;4.53;4.13;;;27.90;70.20;29.10;96565.00;;;;5072406;28;20224;-90
2022/08/25 09:00:49;;;;;;;4.88;4.32;;;28.00;69.90;29.10;96563.00;;;;5071595;28;20200;-90
2022/08/25 09:03:31;;;;;;;4.68;4.13;;;28.00;69.60;29.20;96555.00;;;;5090768;28;20680;-89
2022/08/25 09:06:11;;;;;;;5.03;3.92;;;28.10;69.70;29.30;96555.00;;;;5079117;28;20196;-89
2022/08/25 09:08:43;;;;;;;4.80;4.45;;;28.10;68.80;29.50;96551.00;;;;5089822;28;20285;-89
2022/08/25 09:11:24;;;;;;;4.53;4.18;;;28.20;69.40;29.70;96552.00;;;;5091037;28;20188;-89
2022/08/25 09:14:14;;;;;;;4.38;3.97;;;28.30;69.40;29.80;96550.00;;;;5082934;28;20195;-89
2022/08/25 09:16:54;;;;;;;4.53;4.15;;;28.50;68.40;29.90;96552.00;;;;5089450;28;20239;-89
2022/08/25 09:19:53;;;;;;;4.13;3.83;;;28.60;68.40;30.10;96541.00;;;;5090788;28;20221;-89
2022/08/25 09:22:40;;;;;;;4.50;4.10;;;28.70;67.90;30.20;96548.00;;;;5090852;28;20205;-89
2022/08/25 09:25:19;;;;;;;4.80;4.40;;;28.80;67.30;30.30;96538.00;;;;5090635;28;20233;-89
2022/08/25 09:27:57;;;;;;;4.28;3.97;;;28.90;67.40;30.30;96537.00;;;;5090864;28;20223;-89
2022/08/25 09:30:24;;;;;;;5.15;4.45;;;29.00;67.40;30.40;96535.00;;;;5090745;28;20674;-89
2022/08/25 09:33:02;;;;;;;4.60;4.25;;;29.10;67.20;30.50;96535.00;;;;5090962;28;20252;-90
2022/08/25 09:35:34;;;;;;;4.53;4.22;;;29.20;66.80;30.60;96533.00;;;;5090520;28;20623;-89
2022/08/25 09:38:06;;;;;;;3.88;3.58;;;29.20;66.30;30.60;96538.00;;;;5091388;28;20269;-89
2022/08/25 09:40:36;;;;;;;5.00;4.60;;;29.40;66.40;30.70;96541.00;;;;5091122;28;20207;-89
2022/08/25 09:43:22;;;;;;;5.00;4.70;;;29.40;65.90;30.80;96537.00;;;;5091537;28;20191;-89
2022/08/25 09:46:01;;;;;;;5.03;4.63;;;29.50;65.00;30.90;96547.00;;;;5090735;28;20286;-89
2022/08/25 09:48:36;;;;;;;5.00;4.60;;;29.60;65.30;30.90;96540.00;;;;5090739;28;20243;-89
2022/08/25 09:51:20;;;;;;;4.75;4.20;;;29.70;65.30;31.00;96531.00;;;;5091285;28;20199;-89
2022/08/25 09:53:55;;;;;;;5.03;4.55;;;29.80;63.90;31.10;96539.00;;;;5091360;28;20296;-89
2022/08/25 09:56:26;;;;;;;4.35;4.03;;;29.80;62.90;31.10;96527.00;;;;5090253;28;20260;-89
2022/08/25 09:58:56;;;;;;;4.93;4.43;;;29.90;63.70;31.20;96534.00;;;;5090386;28;20219;-89
2022/08/25 10:01:24;;;;;;;4.88;4.47;;;29.90;63.60;31.20;96538.00;;;;5090858;28;20200;-89
2022/08/25 10:03:59;;;;;;;5.03;4.63;;;30.00;64.00;31.30;96534.00;;;;5090253;28;20219;-89
2022/08/25 10:06:33;;;;;;;4.70;4.30;;;30.10;64.60;31.30;96523.00;;;;5090031;28;20306;-89
2022/08/25 10:09:06;;;;;;;4.90;4.50;;;30.10;63.80;31.30;96520.00;;;;5090587;28;20238;-89
2022/08/25 10:11:43;;;;;;;4.78;4.38;;;30.20;63.00;31.30;96524.00;;;;5091026;28;20720;-89
2022/08/25 10:14:27;;;;;;;4.50;4.10;;;30.20;62.50;31.30;96523.00;;;;5094257;28;20632;-89
2022/08/25 10:17:16;;;;;;;4.68;4.28;;;30.20;61.60;31.20;96524.00;;;;5093482;28;20219;-89
2022/08/25 10:19:43;;;;;;;4.40;4.10;;;30.20;61.20;31.20;96527.00;;;;5095621;28;20251;-89
2022/08/25 10:22:20;;;;;;;4.68;4.35;;;30.20;61.90;31.10;96521.00;;;;5095791;28;20249;-89
2022/08/25 10:24:50;;;;;;;4.40;4.05;;;30.20;62.00;31.10;96515.00;;;;5095456;28;20258;-88
2022/08/25 10:27:27;;;;;;;4.20;3.90;;;30.20;62.00;31.10;96516.00;;;;5096494;28;20215;-89
2022/08/25 10:30:17;;;;;;;4.50;4.10;;;30.10;62.00;31.20;96508.00;;;;5096800;28;20194;-89
2022/08/25 10:33:20;;;;;;;4.65;4.18;;;30.20;62.10;31.40;96500.00;;;;5098153;28;20242;-89
2022/08/25 10:36:01;;;;;;;4.75;4.18;;;30.30;62.30;31.60;96500.00;;;;5093164;28;20199;-89
2022/08/25 10:38:42;;;;;;;5.00;4.50;;;30.40;63.00;31.80;96499.00;;;;5092765;28;20239;-89
2022/08/25 10:41:38;;;;;;;4.70;4.30;;;30.60;62.90;32.00;96495.00;;;;5093682;28;20250;-89
2022/08/25 10:47:51;;;;;;;5.70;3.92;;;31.00;61.80;32.40;96495.00;;;;5093120;28;20209;-89
2022/08/25 10:50:29;;;;;;;4.10;3.65;;;31.20;60.60;32.60;96495.00;;;;5093611;28;20262;-88
2022/08/25 10:53:19;;;;;;;4.65;4.15;;;31.40;60.00;32.80;96488.00;;;;5093952;28;20206;-88
2022/08/25 10:56:04;;;;;;;5.95;3.78;;;31.60;59.60;32.80;96496.00;;;;5093826;28;20589;-89
2022/08/25 10:58:59;;;;;;;6.10;4.28;;;31.70;58.90;32.90;96496.00;;;;5093236;28;20249;-89
2022/08/25 11:01:44;;;;;;;6.88;4.18;;;31.80;57.90;32.90;96494.00;;;;5091944;28;20281;-89
2022/08/25 11:04:18;;;;;;;4.55;3.90;;;31.90;57.70;32.90;96483.00;;;;5094029;28;20286;-89
2022/08/25 11:06:52;;;;;;;3.92;3.63;;;31.90;58.40;32.90;96477.00;;;;5081881;28;20234;-89
2022/08/25 11:09:27;;;;;;;4.90;3.83;;;32.00;58.10;32.90;96480.00;;;;5088932;28;20211;-88
2022/08/25 11:12:00;;;;;;;6.05;4.40;;;32.00;57.90;32.90;96479.00;;;;5081109;28;20281;-89
2022/08/25 11:14:36;;;;;;;5.28;4.03;;;32.00;57.40;32.90;96477.00;;;;5072660;28;20242;-89
2022/08/25 11:17:13;;;;;;;4.90;3.75;;;32.00;57.50;32.90;96487.00;;;;5075748;28;20684;-89
2022/08/25 11:19:46;;;;;;;6.10;3.67;;;32.00;57.80;32.90;96483.00;;;;5091248;28;20309;-89
2022/08/25 11:22:20;;;;;;;5.72;4.45;;;32.00;57.70;32.90;96474.00;;;;5075787;28;20196;-89
2022/08/25 11:24:59;;;;;;;6.70;4.03;;;31.90;57.30;32.90;96480.00;;;;5086415;28;20846;-89
2022/08/25 11:27:36;;;;;;;6.13;3.90;;;32.00;57.10;32.80;96469.00;;;;5081217;28;20231;-89
2022/08/25 11:30:10;;;;;;;6.10;4.05;;;31.90;56.60;32.80;96472.00;;;;5092736;28;20237;-89
2022/08/25 11:32:39;;;;;;;9.70;3.80;;;31.90;56.70;32.70;96469.00;;;;5092755;28;20587;-89